createdAt,value
2023-02-27T00:02:58.600Z,16.20
2023-02-27T00:08:01.612Z,17.15
2023-02-27T00:13:04.608Z,14.90
2023-02-27T00:18:08.000Z,21.63
2023-02-27T00:23:11.116Z,19.05
2023-02-27T00:28:13.531Z,18.63
2023-02-27T00:33:16.901Z,17.77
2023-02-27T00:38:19.210Z,17.23
2023-02-27T00:43:21.716Z,14.82
2023-02-27T00:48:25.983Z,17.95
2023-02-27T00:53:28.990Z,14.05
2023-02-27T00:58:32.329Z,16.08
2023-02-27T01:03:36.450Z,18.70
2023-02-27T01:08:39.344Z,19.20
2023-02-27T01:13:41.981Z,15.65
2023-02-27T01:18:44.371Z,20.52
2023-02-27T01:23:47.418Z,19.17
2023-02-27T01:28:50.239Z,20.88
2023-02-27T01:33:53.257Z,17.15
2023-02-27T01:38:56.109Z,16.33
2023-02-27T01:44:08.447Z,19.08
2023-02-27T01:49:16.804Z,15.07
2023-02-27T01:54:22.786Z,19.15
2023-02-27T01:59:26.598Z,16.17
2023-02-27T02:04:36.363Z,18.42
2023-02-27T02:10:00.368Z,15.82
2023-02-27T02:15:07.483Z,16.27
2023-02-27T02:20:43.013Z,17.13
2023-02-27T02:26:04.538Z,16.92
2023-02-27T02:31:32.168Z,16.95
2023-02-27T02:37:05.771Z,17.45
2023-02-27T02:42:21.689Z,21.13
2023-02-27T02:47:57.466Z,19.73
2023-02-27T02:52:59.682Z,18.67
2023-02-27T02:58:29.776Z,14.13
2023-02-27T03:03:41.539Z,19.88
2023-02-27T03:08:52.709Z,14.60
2023-02-27T03:14:11.114Z,13.40
2023-02-27T03:19:16.557Z,16.50
2023-02-27T03:24:26.404Z,15.88
2023-02-27T03:29:52.763Z,17.70
2023-02-27T03:34:56.796Z,16.25
2023-02-27T03:40:23.213Z,14.43
2023-02-27T03:45:34.115Z,14.30
2023-02-27T03:50:38.648Z,16.95
2023-02-27T03:55:45.519Z,13.18
2023-02-27T04:00:48.617Z,15.68
2023-02-27T04:05:52.707Z,13.77
2023-02-27T04:11:18.694Z,49.85
2023-02-27T04:16:36.462Z,55.78
2023-02-27T04:21:38.742Z,49.65
2023-02-27T04:26:51.981Z,37.53
2023-02-27T04:32:14.121Z,18.75
2023-02-27T04:37:26.469Z,19.10
2023-02-27T04:42:35.817Z,16.60
2023-02-27T04:47:47.968Z,20.13
2023-02-27T04:53:00.249Z,19.98
2023-02-27T04:58:09.488Z,19.05
2023-02-27T05:03:18.701Z,18.38
2023-02-27T05:08:33.461Z,16.95
2023-02-27T05:13:49.774Z,27.92
2023-02-27T05:18:53.928Z,21.60
2023-02-27T05:24:22.667Z,20.30
2023-02-27T05:29:47.976Z,25.50
2023-02-27T05:35:06.820Z,27.33
2023-02-27T05:40:20.568Z,20.55
2023-02-27T05:45:29.630Z,19.23
2023-02-27T05:50:36.893Z,19.27
2023-02-27T05:55:44.255Z,14.77
2023-02-27T06:00:55.651Z,19.48
2023-02-27T06:06:04.775Z,18.58
2023-02-27T06:11:08.457Z,18.17
2023-02-27T06:16:15.002Z,18.63
2023-02-27T06:21:19.618Z,13.57
2023-02-27T06:26:22.377Z,21.00
2023-02-27T06:31:25.250Z,15.02
2023-02-27T06:36:29.804Z,13.88
2023-02-27T06:41:33.048Z,15.65
2023-02-27T06:46:36.208Z,13.93
2023-02-27T06:51:38.530Z,13.70
2023-02-27T06:56:41.915Z,13.45
2023-02-27T07:01:44.761Z,16.00
2023-02-27T07:07:34.215Z,11.38
2023-02-27T07:12:10.832Z,12.98
2023-02-27T07:17:14.371Z,10.27
2023-02-27T07:22:17.585Z,11.88
2023-02-27T07:27:20.425Z,11.30
2023-02-27T07:32:23.926Z,13.02
2023-02-27T07:37:28.002Z,12.20
2023-02-27T07:42:31.136Z,11.82
2023-02-27T07:47:34.132Z,13.95
2023-02-27T07:52:36.556Z,14.23
2023-02-27T07:57:38.893Z,13.32
2023-02-27T08:02:41.607Z,13.45
2023-02-27T08:07:44.484Z,14.98
2023-02-27T08:12:47.606Z,15.57
2023-02-27T08:17:51.490Z,11.80
2023-02-27T08:22:53.847Z,16.00
2023-02-27T08:27:57.132Z,13.93
2023-02-27T08:33:00.740Z,15.48
2023-02-27T08:38:07.679Z,14.48
2023-02-27T08:43:11.466Z,16.42
2023-02-27T08:48:15.989Z,22.90
2023-02-27T08:53:20.015Z,13.85
2023-02-27T08:58:22.886Z,16.70
2023-02-27T09:03:29.395Z,18.45
2023-02-27T09:08:33.505Z,19.88
2023-02-27T09:13:36.998Z,82.65
2023-02-27T09:18:40.649Z,12.82
2023-02-27T09:23:48.719Z,18.45
2023-02-27T09:28:54.265Z,16.80
2023-02-27T09:33:58.496Z,16.80
2023-02-27T09:39:02.307Z,15.95
2023-02-27T09:44:15.762Z,15.63
2023-02-27T09:49:21.918Z,18.25
2023-02-27T09:54:29.250Z,16.88
2023-02-27T09:59:55.489Z,18.50
2023-02-27T10:05:13.606Z,16.20
2023-02-27T10:10:40.841Z,24.13
2023-02-27T10:15:51.723Z,24.80
2023-02-27T10:21:06.390Z,19.38
2023-02-27T10:26:20.526Z,16.33
2023-02-27T10:31:32.032Z,15.55
2023-02-27T10:36:36.328Z,16.13
2023-02-27T10:41:45.032Z,17.10
2023-02-27T10:46:51.680Z,16.50
2023-02-27T10:52:09.226Z,17.65
2023-02-27T10:57:38.779Z,20.42
2023-02-27T11:03:03.008Z,20.08
2023-02-27T11:13:33.591Z,24.05
2023-02-27T11:18:40.504Z,21.88
2023-02-27T11:24:07.884Z,18.17
2023-02-27T11:29:13.508Z,15.77
2023-02-27T11:34:25.060Z,18.48
2023-02-27T11:39:33.882Z,18.48
2023-02-27T11:44:50.571Z,18.95
2023-02-27T11:49:54.113Z,18.83
2023-02-27T11:55:02.202Z,19.15
2023-02-27T12:00:22.368Z,21.88
2023-02-27T12:05:41.691Z,15.27
2023-02-27T12:11:46.588Z,21.63
2023-02-27T12:17:32.571Z,20.42
2023-02-27T12:22:46.691Z,16.50
2023-02-27T12:27:57.822Z,20.05
2023-02-27T12:38:45.752Z,20.75
2023-02-27T12:44:29.935Z,19.70
2023-02-27T12:49:50.087Z,14.93
2023-02-27T12:55:08.101Z,16.77
2023-02-27T13:05:51.422Z,19.25
2023-02-27T13:11:13.227Z,65.90
2023-02-27T13:16:29.145Z,33.38
2023-02-27T13:21:42.625Z,31.80
2023-02-27T13:27:18.368Z,24.52
2023-02-27T13:32:44.118Z,18.90
2023-02-27T13:38:25.038Z,22.95
2023-02-27T13:43:51.106Z,21.23
2023-02-27T13:49:05.073Z,20.45
2023-02-27T13:54:16.011Z,16.77
2023-02-27T13:59:32.147Z,18.50
2023-02-27T14:05:18.760Z,19.23
2023-02-27T14:10:37.403Z,16.75
2023-02-27T14:15:59.779Z,16.27
2023-02-27T14:22:52.251Z,17.23
2023-02-27T14:27:59.526Z,21.95
2023-02-27T14:34:04.097Z,16.73
2023-02-27T14:39:57.692Z,16.52
2023-02-27T14:45:24.321Z,18.60
2023-02-27T14:51:05.754Z,17.42
2023-02-27T15:01:45.928Z,16.33
2023-02-27T15:07:07.807Z,15.07
2023-02-27T15:12:28.502Z,15.75
2023-02-27T15:18:07.088Z,16.10
2023-02-27T15:23:32.292Z,17.17
2023-02-27T15:28:42.771Z,13.95
2023-02-27T15:34:02.688Z,17.08
2023-02-27T15:39:21.462Z,14.40
2023-02-27T15:44:47.078Z,14.88
2023-02-27T15:50:21.712Z,16.65
2023-02-27T15:55:40.911Z,18.95
2023-02-27T16:00:46.768Z,18.98
2023-02-27T16:06:33.588Z,16.77
2023-02-27T16:11:40.416Z,20.08
2023-02-27T16:17:07.969Z,17.17
2023-02-27T16:22:31.678Z,18.08
2023-02-27T16:28:02.206Z,23.35
2023-02-27T16:33:21.746Z,20.10
2023-02-27T16:38:29.210Z,19.30
2023-02-27T16:43:33.583Z,26.55
2023-02-27T16:48:54.985Z,17.17
2023-02-27T16:55:46.350Z,18.35
2023-02-27T16:59:46.849Z,17.45
2023-02-27T17:04:56.789Z,18.40
2023-02-27T17:10:13.845Z,15.80
2023-02-27T17:15:51.143Z,17.00
2023-02-27T17:21:02.902Z,16.02
2023-02-27T17:26:06.133Z,18.95
2023-02-27T17:31:25.356Z,18.38
2023-02-27T17:36:38.818Z,19.27
2023-02-27T17:41:46.132Z,22.30
2023-02-27T17:46:56.496Z,21.05
2023-02-27T17:52:04.061Z,19.50
2023-02-27T17:57:12.570Z,19.13
2023-02-27T18:02:18.873Z,19.73
2023-02-27T18:12:31.830Z,17.20
2023-02-27T18:17:34.893Z,16.27
2023-02-27T18:22:42.740Z,17.65
2023-02-27T18:27:45.631Z,17.60
2023-02-27T18:32:52.931Z,15.52
2023-02-27T18:43:23.403Z,16.17
2023-02-27T18:48:30.593Z,17.95
2023-02-27T18:53:36.026Z,17.50
2023-02-27T18:58:48.613Z,19.35
2023-02-27T19:04:06.996Z,21.10
2023-02-27T19:09:21.948Z,26.02
2023-02-27T19:14:29.758Z,22.85
2023-02-27T19:19:33.077Z,21.58
2023-02-27T19:24:36.014Z,23.80
2023-02-27T19:29:38.885Z,21.40
2023-02-27T19:34:46.605Z,19.55
2023-02-27T19:39:52.154Z,22.38
2023-02-27T19:44:55.295Z,22.67
2023-02-27T19:50:00.198Z,19.55
2023-02-27T19:55:13.565Z,19.05
2023-02-27T20:00:20.224Z,15.98
2023-02-27T20:05:24.826Z,20.45
2023-02-27T20:10:28.006Z,22.45
2023-02-27T20:15:31.376Z,18.05
2023-02-27T20:20:37.284Z,18.35
2023-02-27T20:25:40.121Z,20.73
2023-02-27T20:30:43.009Z,18.80
2023-02-27T20:35:46.343Z,19.35
2023-02-27T20:40:49.798Z,22.13
2023-02-27T20:45:55.817Z,22.85
2023-02-27T20:51:14.980Z,25.05
2023-02-27T20:56:26.498Z,23.25
2023-02-27T21:06:36.025Z,29.85
2023-02-27T21:11:39.863Z,44.67
2023-02-27T21:16:46.547Z,38.63
2023-02-27T21:21:50.515Z,44.60
2023-02-27T21:26:56.387Z,33.75
2023-02-27T21:32:00.536Z,35.83
2023-02-27T21:37:09.440Z,37.42
2023-02-27T21:42:15.738Z,37.30
2023-02-27T21:47:22.909Z,37.53
2023-02-27T21:52:27.981Z,44.90
2023-02-27T21:57:33.220Z,39.90
2023-02-27T22:02:36.606Z,39.80
2023-02-27T22:07:40.588Z,50.50
2023-02-27T22:12:44.021Z,51.03
2023-02-27T22:17:54.231Z,54.30
2023-02-27T22:22:59.740Z,47.08
2023-02-27T22:28:02.854Z,54.33
2023-02-27T22:33:12.098Z,52.42
2023-02-27T22:38:15.068Z,46.60
2023-02-27T22:43:23.439Z,47.67
2023-02-27T22:48:28.218Z,44.90
2023-02-27T22:53:45.481Z,49.65
2023-02-27T22:58:49.012Z,47.30
2023-02-27T23:09:25.650Z,50.35
2023-02-27T23:14:31.692Z,50.50
2023-02-27T23:19:35.820Z,47.10
2023-02-27T23:24:40.595Z,44.97
2023-02-27T23:29:43.983Z,42.92
2023-02-27T23:34:50.054Z,39.88
2023-02-27T23:39:54.620Z,36.20
2023-02-27T23:45:07.469Z,40.50
2023-02-27T23:50:16.380Z,39.88
2023-02-27T23:55:22.973Z,38.35
